Sunday, April 22, 2018, 12:51 AM GMT
Back to Local

CYPQ, Peterborough Airport

Location: , , Canada Lat: 44.233
Local Time: 12:51 AM GMT ( 0:51 GMT) Lon: -78.367
Time Zone: GMT Elev: 626 ft

Show me the last for .
Show Coded

Time T Td Feel RH Dir Speed Gust Alt SLP Vis Weather Sky Remarks
2018-04-22 00:00 48 23 44 36 290° 10 - 30.35 30.37 9 CLR None
2018-04-21 23:00 52 23 - 32 300° 14 23 30.34 30.37 9 CLR None
2018-04-21 22:00 54 25 - 32 300° 15 22 30.34 30.37 9 CLR None
2018-04-21 21:00 54 25 - 32 290° 17 24 30.34 30.36 9 CLR None
2018-04-21 20:00 54 25 - 32 290° 14 21 30.35 30.37 9 CLR None
2018-04-21 19:00 54 27 - 34 300° 14 20 30.37 30.39 9 CLR None
2018-04-21 18:00 54 25 - 32 300° 8 18 30.38 30.41 9 CLR None
2018-04-21 17:08 52 27 - 37 Variable 15 - 30.40 30.42 9 CLR None
2018-04-21 17:00 50 23 49 34 250° 3 - 30.40 30.42 9 CLR None
2018-04-21 16:00 48 27 46 42 310° 6 - 30.42 30.44 9 CLR None
2018-04-21 15:00 45 27 40 48 290° 9 - 30.44 30.47 9 CLR None
2018-04-21 14:00 41 27 35 56 320° 9 - 30.46 30.48 9 CLR None
2018-04-21 13:00 39 25 29 55 320° 15 21 30.45 30.47 9 CLR None
2018-04-21 12:52 39 25 30 55 330° 16 - 30.45 30.48 9 CLR None
2018-04-21 12:00 36 25 32 64 280° 5 - 30.44 30.47 9 CLR None
2018-04-21 11:00 28 25 25 86 180° 3 - 30.42 30.45 9 CLR None
2018-04-21 10:00 27 23 23 86 290° 3 - 30.42 30.45 9 CLR None
2018-04-21 09:00 28 23 22 79 290° 6 - 30.42 30.45 9 CLR None
2018-04-21 08:00 28 23 20 79 280° 9 - 30.42 30.45 9 CLR None
2018-04-21 07:00 30 23 23 74 280° 7 - 30.41 30.44 9 CLR None
2018-04-21 06:00 30 23 23 74 300° 7 - 30.42 30.45 9 CLR None
2018-04-21 05:00 32 23 - 68 Variable 2 - 30.42 30.44 9 CLR None
2018-04-21 04:00 32 23 27 68 340° 5 - 30.39 30.42 9 CLR None
2018-04-21 03:00 34 25 28 69 300° 7 - 30.39 30.42 9 CLR None
2018-04-21 02:00 34 25 26 69 290° 9 - 30.39 30.42 9 CLR None
2018-04-21 01:00 36 27 28 69 280° 10 - 30.38 30.41 9 CLR None

Support USWX by starting your Amazon purchase here.